sensor_id;sensor_type;location;lat;lon;timestamp;P1;durP1;ratioP1;P2;durP2;ratioP2
11334;SDS011;5722;42.620;23.374;2024-02-15T00:00:10;9.57;;;6.70;;
11334;SDS011;5722;42.620;23.374;2024-02-15T00:02:41;7.80;;;7.00;;
11334;SDS011;5722;42.620;23.374;2024-02-15T00:05:15;7.73;;;6.93;;
11334;SDS011;5722;42.620;23.374;2024-02-15T00:07:45;7.40;;;6.60;;
11334;SDS011;5722;42.620;23.374;2024-02-15T00:10:13;8.67;;;7.20;;
11334;SDS011;5722;42.620;23.374;2024-02-15T00:12:40;9.17;;;6.83;;
11334;SDS011;5722;42.620;23.374;2024-02-15T00:15:08;8.33;;;6.57;;
11334;SDS011;5722;42.620;23.374;2024-02-15T00:17:37;8.07;;;7.07;;
11334;SDS011;5722;42.620;23.374;2024-02-15T00:20:20;9.07;;;7.40;;
11334;SDS011;5722;42.620;23.374;2024-02-15T00:22:51;8.67;;;6.53;;
11334;SDS011;5722;42.620;23.374;2024-02-15T00:25:21;8.17;;;6.87;;
11334;SDS011;5722;42.620;23.374;2024-02-15T00:31:10;9.03;;;7.30;;
11334;SDS011;5722;42.620;23.374;2024-02-15T00:33:47;7.57;;;6.57;;
11334;SDS011;5722;42.620;23.374;2024-02-15T00:36:38;8.47;;;7.20;;
11334;SDS011;5722;42.620;23.374;2024-02-15T00:39:20;7.17;;;6.33;;
11334;SDS011;5722;42.620;23.374;2024-02-15T00:41:49;10.33;;;6.90;;
11334;SDS011;5722;42.620;23.374;2024-02-15T00:44:16;8.17;;;6.90;;
11334;SDS011;5722;42.620;23.374;2024-02-15T00:46:44;9.37;;;6.80;;
11334;SDS011;5722;42.620;23.374;2024-02-15T00:49:13;7.53;;;6.80;;
11334;SDS011;5722;42.620;23.374;2024-02-15T00:51:52;7.73;;;6.40;;
11334;SDS011;5722;42.620;23.374;2024-02-15T00:54:20;8.27;;;6.70;;
11334;SDS011;5722;42.620;23.374;2024-02-15T00:56:47;8.40;;;6.60;;
11334;SDS011;5722;42.620;23.374;2024-02-15T00:59:17;8.80;;;6.63;;
11334;SDS011;5722;42.620;23.374;2024-02-15T01:01:47;9.10;;;6.93;;
11334;SDS011;5722;42.620;23.374;2024-02-15T01:04:21;11.87;;;6.73;;
11334;SDS011;5722;42.620;23.374;2024-02-15T01:06:55;8.20;;;6.60;;
11334;SDS011;5722;42.620;23.374;2024-02-15T01:09:29;9.00;;;6.60;;
11334;SDS011;5722;42.620;23.374;2024-02-15T01:11:57;8.60;;;7.20;;
11334;SDS011;5722;42.620;23.374;2024-02-15T01:14:36;8.93;;;7.20;;
11334;SDS011;5722;42.620;23.374;2024-02-15T01:17:03;7.87;;;6.17;;
11334;SDS011;5722;42.620;23.374;2024-02-15T01:19:41;7.73;;;6.43;;
11334;SDS011;5722;42.620;23.374;2024-02-15T01:22:11;8.87;;;6.60;;
11334;SDS011;5722;42.620;23.374;2024-02-15T01:24:41;8.70;;;6.27;;
11334;SDS011;5722;42.620;23.374;2024-02-15T01:27:08;7.73;;;6.27;;
11334;SDS011;5722;42.620;23.374;2024-02-15T01:29:36;8.07;;;6.67;;
11334;SDS011;5722;42.620;23.374;2024-02-15T01:32:05;8.80;;;6.90;;
11334;SDS011;5722;42.620;23.374;2024-02-15T01:34:32;8.10;;;6.43;;
11334;SDS011;5722;42.620;23.374;2024-02-15T01:37:01;10.07;;;6.93;;
11334;SDS011;5722;42.620;23.374;2024-02-15T01:39:32;7.83;;;6.70;;
11334;SDS011;5722;42.620;23.374;2024-02-15T01:41:59;8.50;;;6.97;;
11334;SDS011;5722;42.620;23.374;2024-02-15T01:44:46;11.53;;;7.13;;
11334;SDS011;5722;42.620;23.374;2024-02-15T01:47:16;8.63;;;6.83;;
11334;SDS011;5722;42.620;23.374;2024-02-15T01:49:44;8.37;;;6.13;;
11334;SDS011;5722;42.620;23.374;2024-02-15T01:52:16;8.73;;;6.63;;
11334;SDS011;5722;42.620;23.374;2024-02-15T01:54:48;7.77;;;6.50;;
11334;SDS011;5722;42.620;23.374;2024-02-15T01:57:21;9.60;;;6.73;;
11334;SDS011;5722;42.620;23.374;2024-02-15T01:59:49;9.73;;;6.77;;
11334;SDS011;5722;42.620;23.374;2024-02-15T02:02:23;8.77;;;6.83;;
11334;SDS011;5722;42.620;23.374;2024-02-15T02:04:51;11.83;;;7.33;;
11334;SDS011;5722;42.620;23.374;2024-02-15T02:07:21;8.27;;;6.77;;
11334;SDS011;5722;42.620;23.374;2024-02-15T02:09:49;9.50;;;6.80;;
11334;SDS011;5722;42.620;23.374;2024-02-15T02:12:17;8.40;;;6.30;;
11334;SDS011;5722;42.620;23.374;2024-02-15T02:14:44;8.53;;;6.80;;
11334;SDS011;5722;42.620;23.374;2024-02-15T02:17:14;8.53;;;6.50;;
11334;SDS011;5722;42.620;23.374;2024-02-15T02:19:45;7.27;;;6.47;;
11334;SDS011;5722;42.620;23.374;2024-02-15T02:22:22;8.37;;;6.93;;
11334;SDS011;5722;42.620;23.374;2024-02-15T02:24:57;9.77;;;7.37;;
11334;SDS011;5722;42.620;23.374;2024-02-15T02:27:24;11.80;;;6.83;;
11334;SDS011;5722;42.620;23.374;2024-02-15T02:29:53;7.43;;;6.30;;
11334;SDS011;5722;42.620;23.374;2024-02-15T02:32:23;10.60;;;6.70;;
11334;SDS011;5722;42.620;23.374;2024-02-15T02:34:50;9.97;;;7.33;;
11334;SDS011;5722;42.620;23.374;2024-02-15T02:37:22;9.47;;;6.57;;
11334;SDS011;5722;42.620;23.374;2024-02-15T02:39:52;9.03;;;7.30;;
11334;SDS011;5722;42.620;23.374;2024-02-15T02:42:20;9.37;;;7.20;;
11334;SDS011;5722;42.620;23.374;2024-02-15T02:44:48;10.10;;;7.13;;
11334;SDS011;5722;42.620;23.374;2024-02-15T02:47:31;8.47;;;7.03;;
11334;SDS011;5722;42.620;23.374;2024-02-15T02:49:59;10.00;;;6.60;;
11334;SDS011;5722;42.620;23.374;2024-02-15T02:52:27;10.47;;;6.53;;
11334;SDS011;5722;42.620;23.374;2024-02-15T02:54:53;8.30;;;6.63;;
11334;SDS011;5722;42.620;23.374;2024-02-15T02:57:30;9.83;;;7.30;;
11334;SDS011;5722;42.620;23.374;2024-02-15T02:59:57;9.03;;;7.00;;
11334;SDS011;5722;42.620;23.374;2024-02-15T03:02:24;9.30;;;7.00;;
11334;SDS011;5722;42.620;23.374;2024-02-15T03:04:56;9.13;;;7.27;;
11334;SDS011;5722;42.620;23.374;2024-02-15T03:07:27;9.47;;;6.70;;
11334;SDS011;5722;42.620;23.374;2024-02-15T03:09:58;9.27;;;6.83;;
11334;SDS011;5722;42.620;23.374;2024-02-15T03:12:38;9.13;;;7.10;;
11334;SDS011;5722;42.620;23.374;2024-02-15T03:15:09;10.63;;;7.40;;
11334;SDS011;5722;42.620;23.374;2024-02-15T03:17:37;10.50;;;7.20;;
11334;SDS011;5722;42.620;23.374;2024-02-15T03:20:05;9.93;;;7.67;;
11334;SDS011;5722;42.620;23.374;2024-02-15T03:22:37;9.30;;;7.60;;
11334;SDS011;5722;42.620;23.374;2024-02-15T03:25:08;10.47;;;7.47;;
11334;SDS011;5722;42.620;23.374;2024-02-15T03:27:36;11.40;;;7.90;;
11334;SDS011;5722;42.620;23.374;2024-02-15T03:30:04;10.70;;;7.47;;
11334;SDS011;5722;42.620;23.374;2024-02-15T03:32:31;10.70;;;7.90;;
11334;SDS011;5722;42.620;23.374;2024-02-15T03:34:59;9.53;;;7.70;;
11334;SDS011;5722;42.620;23.374;2024-02-15T03:37:27;9.60;;;7.47;;
11334;SDS011;5722;42.620;23.374;2024-02-15T03:39:55;12.93;;;8.07;;
11334;SDS011;5722;42.620;23.374;2024-02-15T03:42:21;8.83;;;7.20;;
11334;SDS011;5722;42.620;23.374;2024-02-15T03:44:53;12.37;;;7.53;;
11334;SDS011;5722;42.620;23.374;2024-02-15T03:47:23;10.37;;;7.83;;
11334;SDS011;5722;42.620;23.374;2024-02-15T03:49:54;10.10;;;8.07;;
11334;SDS011;5722;42.620;23.374;2024-02-15T03:52:22;10.67;;;7.83;;
11334;SDS011;5722;42.620;23.374;2024-02-15T03:54:54;9.87;;;7.73;;
11334;SDS011;5722;42.620;23.374;2024-02-15T03:57:21;11.13;;;8.13;;
11334;SDS011;5722;42.620;23.374;2024-02-15T03:59:52;13.37;;;8.57;;
11334;SDS011;5722;42.620;23.374;2024-02-15T04:02:21;10.80;;;8.47;;
11334;SDS011;5722;42.620;23.374;2024-02-15T04:04:51;11.13;;;8.20;;
11334;SDS011;5722;42.620;23.374;2024-02-15T04:07:25;9.93;;;7.80;;
11334;SDS011;5722;42.620;23.374;2024-02-15T04:09:56;10.03;;;7.90;;
11334;SDS011;5722;42.620;23.374;2024-02-15T04:12:26;10.07;;;7.90;;
11334;SDS011;5722;42.620;23.374;2024-02-15T04:14:57;10.03;;;7.90;;
11334;SDS011;5722;42.620;23.374;2024-02-15T04:17:30;11.53;;;7.90;;
11334;SDS011;5722;42.620;23.374;2024-02-15T04:20:00;13.50;;;7.77;;
11334;SDS011;5722;42.620;23.374;2024-02-15T04:22:32;10.97;;;8.37;;
11334;SDS011;5722;42.620;23.374;2024-02-15T04:25:08;10.70;;;7.90;;
11334;SDS011;5722;42.620;23.374;2024-02-15T04:27:35;12.43;;;8.43;;
11334;SDS011;5722;42.620;23.374;2024-02-15T04:30:08;9.57;;;8.00;;
11334;SDS011;5722;42.620;23.374;2024-02-15T04:32:38;11.27;;;8.07;;
11334;SDS011;5722;42.620;23.374;2024-02-15T04:35:06;10.97;;;7.87;;
11334;SDS011;5722;42.620;23.374;2024-02-15T04:37:35;8.93;;;7.30;;
11334;SDS011;5722;42.620;23.374;2024-02-15T04:40:09;10.20;;;7.83;;
11334;SDS011;5722;42.620;23.374;2024-02-15T04:42:38;10.27;;;7.53;;
11334;SDS011;5722;42.620;23.374;2024-02-15T04:45:16;11.13;;;8.23;;
11334;SDS011;5722;42.620;23.374;2024-02-15T04:50:49;11.30;;;7.70;;
11334;SDS011;5722;42.620;23.374;2024-02-15T04:53:17;11.97;;;8.27;;
11334;SDS011;5722;42.620;23.374;2024-02-15T04:58:40;11.73;;;7.73;;
11334;SDS011;5722;42.620;23.374;2024-02-15T05:01:32;10.83;;;8.10;;
11334;SDS011;5722;42.620;23.374;2024-02-15T05:04:03;9.83;;;7.90;;
11334;SDS011;5722;42.620;23.374;2024-02-15T05:06:33;9.37;;;7.60;;
11334;SDS011;5722;42.620;23.374;2024-02-15T05:09:02;9.40;;;7.57;;
11334;SDS011;5722;42.620;23.374;2024-02-15T05:11:32;13.10;;;8.27;;
11334;SDS011;5722;42.620;23.374;2024-02-15T05:14:07;10.30;;;8.00;;
11334;SDS011;5722;42.620;23.374;2024-02-15T05:16:43;11.40;;;7.93;;
11334;SDS011;5722;42.620;23.374;2024-02-15T05:19:14;11.40;;;8.60;;
11334;SDS011;5722;42.620;23.374;2024-02-15T05:21:43;10.30;;;8.20;;
11334;SDS011;5722;42.620;23.374;2024-02-15T05:24:24;11.23;;;7.97;;
11334;SDS011;5722;42.620;23.374;2024-02-15T05:27:00;11.77;;;8.03;;
11334;SDS011;5722;42.620;23.374;2024-02-15T05:29:45;10.77;;;8.53;;
11334;SDS011;5722;42.620;23.374;2024-02-15T05:35:08;13.27;;;8.70;;
11334;SDS011;5722;42.620;23.374;2024-02-15T05:40:37;13.23;;;8.27;;
11334;SDS011;5722;42.620;23.374;2024-02-15T05:45:55;12.87;;;8.23;;
11334;SDS011;5722;42.620;23.374;2024-02-15T05:48:24;17.23;;;8.17;;
11334;SDS011;5722;42.620;23.374;2024-02-15T05:51:02;13.33;;;7.63;;
11334;SDS011;5722;42.620;23.374;2024-02-15T05:56:17;11.47;;;7.33;;
11334;SDS011;5722;42.620;23.374;2024-02-15T05:58:47;12.50;;;7.20;;
11334;SDS011;5722;42.620;23.374;2024-02-15T06:01:16;9.30;;;6.60;;
11334;SDS011;5722;42.620;23.374;2024-02-15T06:03:47;11.07;;;7.43;;
11334;SDS011;5722;42.620;23.374;2024-02-15T06:09:05;11.87;;;6.93;;
11334;SDS011;5722;42.620;23.374;2024-02-15T06:11:40;11.47;;;7.00;;
11334;SDS011;5722;42.620;23.374;2024-02-15T06:14:12;11.40;;;7.07;;
11334;SDS011;5722;42.620;23.374;2024-02-15T06:16:46;11.63;;;7.43;;
11334;SDS011;5722;42.620;23.374;2024-02-15T06:19:31;12.33;;;8.27;;
11334;SDS011;5722;42.620;23.374;2024-02-15T06:22:00;11.63;;;7.70;;
11334;SDS011;5722;42.620;23.374;2024-02-15T06:24:39;11.30;;;7.77;;
11334;SDS011;5722;42.620;23.374;2024-02-15T06:27:08;11.10;;;8.13;;
11334;SDS011;5722;42.620;23.374;2024-02-15T06:29:41;10.90;;;7.80;;
11334;SDS011;5722;42.620;23.374;2024-02-15T06:32:32;13.90;;;8.17;;
11334;SDS011;5722;42.620;23.374;2024-02-15T06:35:28;11.23;;;8.27;;
11334;SDS011;5722;42.620;23.374;2024-02-15T06:38:23;13.60;;;8.50;;
11334;SDS011;5722;42.620;23.374;2024-02-15T06:46:39;12.93;;;8.57;;
11334;SDS011;5722;42.620;23.374;2024-02-15T06:49:06;13.20;;;8.00;;
11334;SDS011;5722;42.620;23.374;2024-02-15T06:51:36;11.63;;;7.70;;
11334;SDS011;5722;42.620;23.374;2024-02-15T06:54:05;10.53;;;8.20;;
11334;SDS011;5722;42.620;23.374;2024-02-15T06:56:37;11.43;;;7.80;;
11334;SDS011;5722;42.620;23.374;2024-02-15T06:59:04;10.77;;;8.03;;
11334;SDS011;5722;42.620;23.374;2024-02-15T07:01:31;13.40;;;7.90;;
11334;SDS011;5722;42.620;23.374;2024-02-15T07:04:04;10.27;;;7.40;;
11334;SDS011;5722;42.620;23.374;2024-02-15T07:06:33;13.13;;;8.23;;
11334;SDS011;5722;42.620;23.374;2024-02-15T07:09:03;11.37;;;7.93;;
11334;SDS011;5722;42.620;23.374;2024-02-15T07:11:34;11.70;;;7.40;;
11334;SDS011;5722;42.620;23.374;2024-02-15T07:14:01;16.90;;;7.90;;
11334;SDS011;5722;42.620;23.374;2024-02-15T07:16:36;12.90;;;8.70;;
11334;SDS011;5722;42.620;23.374;2024-02-15T07:19:05;11.27;;;8.13;;
11334;SDS011;5722;42.620;23.374;2024-02-15T07:21:37;11.07;;;7.73;;
11334;SDS011;5722;42.620;23.374;2024-02-15T07:24:12;10.27;;;7.73;;
11334;SDS011;5722;42.620;23.374;2024-02-15T07:26:43;9.83;;;7.27;;
11334;SDS011;5722;42.620;23.374;2024-02-15T07:29:11;11.97;;;8.03;;
11334;SDS011;5722;42.620;23.374;2024-02-15T07:31:42;12.83;;;7.17;;
11334;SDS011;5722;42.620;23.374;2024-02-15T07:34:13;10.27;;;7.60;;
11334;SDS011;5722;42.620;23.374;2024-02-15T07:36:41;10.27;;;7.40;;
11334;SDS011;5722;42.620;23.374;2024-02-15T07:39:19;9.90;;;7.13;;
11334;SDS011;5722;42.620;23.374;2024-02-15T07:41:50;12.40;;;7.63;;
11334;SDS011;5722;42.620;23.374;2024-02-15T07:44:19;11.03;;;7.43;;
11334;SDS011;5722;42.620;23.374;2024-02-15T07:46:47;13.00;;;7.83;;
11334;SDS011;5722;42.620;23.374;2024-02-15T07:49:23;14.13;;;7.50;;
11334;SDS011;5722;42.620;23.374;2024-02-15T07:51:51;9.83;;;7.00;;
11334;SDS011;5722;42.620;23.374;2024-02-15T07:54:22;9.67;;;7.67;;
11334;SDS011;5722;42.620;23.374;2024-02-15T07:56:52;8.97;;;7.27;;
11334;SDS011;5722;42.620;23.374;2024-02-15T07:59:22;11.77;;;7.90;;
11334;SDS011;5722;42.620;23.374;2024-02-15T08:01:49;13.83;;;7.03;;
11334;SDS011;5722;42.620;23.374;2024-02-15T08:04:22;12.17;;;7.60;;
11334;SDS011;5722;42.620;23.374;2024-02-15T08:06:50;11.70;;;7.10;;
11334;SDS011;5722;42.620;23.374;2024-02-15T08:09:19;10.80;;;6.70;;
11334;SDS011;5722;42.620;23.374;2024-02-15T08:11:56;10.03;;;7.53;;
11334;SDS011;5722;42.620;23.374;2024-02-15T08:14:24;10.90;;;7.20;;
11334;SDS011;5722;42.620;23.374;2024-02-15T08:16:57;12.47;;;7.80;;
11334;SDS011;5722;42.620;23.374;2024-02-15T08:19:29;9.67;;;6.60;;
11334;SDS011;5722;42.620;23.374;2024-02-15T08:22:02;11.23;;;7.37;;
11334;SDS011;5722;42.620;23.374;2024-02-15T08:24:32;11.50;;;7.63;;
11334;SDS011;5722;42.620;23.374;2024-02-15T08:27:07;9.67;;;7.17;;
11334;SDS011;5722;42.620;23.374;2024-02-15T08:29:40;12.47;;;7.33;;
11334;SDS011;5722;42.620;23.374;2024-02-15T08:32:10;12.57;;;8.10;;
11334;SDS011;5722;42.620;23.374;2024-02-15T08:40:18;11.30;;;7.83;;
11334;SDS011;5722;42.620;23.374;2024-02-15T08:42:50;15.30;;;7.40;;
11334;SDS011;5722;42.620;23.374;2024-02-15T08:45:21;12.43;;;7.40;;
11334;SDS011;5722;42.620;23.374;2024-02-15T08:47:48;12.40;;;7.60;;
11334;SDS011;5722;42.620;23.374;2024-02-15T08:50:18;13.47;;;7.60;;
11334;SDS011;5722;42.620;23.374;2024-02-15T08:52:51;9.23;;;7.20;;
11334;SDS011;5722;42.620;23.374;2024-02-15T08:55:23;10.60;;;7.30;;
11334;SDS011;5722;42.620;23.374;2024-02-15T08:57:56;9.73;;;7.60;;
11334;SDS011;5722;42.620;23.374;2024-02-15T09:00:27;13.47;;;7.67;;
11334;SDS011;5722;42.620;23.374;2024-02-15T09:05:38;11.40;;;8.00;;
11334;SDS011;5722;42.620;23.374;2024-02-15T09:08:06;12.27;;;7.77;;
11334;SDS011;5722;42.620;23.374;2024-02-15T09:10:34;10.27;;;8.23;;
11334;SDS011;5722;42.620;23.374;2024-02-15T09:13:03;13.43;;;8.20;;
11334;SDS011;5722;42.620;23.374;2024-02-15T09:15:31;8.13;;;6.73;;
11334;SDS011;5722;42.620;23.374;2024-02-15T09:18:04;10.77;;;7.73;;
11334;SDS011;5722;42.620;23.374;2024-02-15T09:20:35;10.60;;;7.27;;
11334;SDS011;5722;42.620;23.374;2024-02-15T09:23:10;10.93;;;7.83;;
11334;SDS011;5722;42.620;23.374;2024-02-15T09:25:43;11.47;;;6.97;;
11334;SDS011;5722;42.620;23.374;2024-02-15T09:28:10;8.73;;;6.97;;
11334;SDS011;5722;42.620;23.374;2024-02-15T09:30:40;10.67;;;6.83;;
11334;SDS011;5722;42.620;23.374;2024-02-15T09:33:07;12.13;;;7.47;;
11334;SDS011;5722;42.620;23.374;2024-02-15T09:35:42;9.93;;;7.57;;
11334;SDS011;5722;42.620;23.374;2024-02-15T09:38:12;10.73;;;6.87;;
11334;SDS011;5722;42.620;23.374;2024-02-15T09:40:45;16.83;;;7.57;;
11334;SDS011;5722;42.620;23.374;2024-02-15T09:43:16;10.00;;;7.60;;
11334;SDS011;5722;42.620;23.374;2024-02-15T09:45:43;11.50;;;7.90;;
11334;SDS011;5722;42.620;23.374;2024-02-15T09:48:15;12.57;;;7.90;;
11334;SDS011;5722;42.620;23.374;2024-02-15T09:50:50;11.63;;;7.70;;
11334;SDS011;5722;42.620;23.374;2024-02-15T09:53:21;10.97;;;7.17;;
11334;SDS011;5722;42.620;23.374;2024-02-15T09:55:51;12.23;;;7.83;;
11334;SDS011;5722;42.620;23.374;2024-02-15T09:58:21;10.57;;;7.37;;
11334;SDS011;5722;42.620;23.374;2024-02-15T10:00:50;11.13;;;7.10;;
11334;SDS011;5722;42.620;23.374;2024-02-15T10:03:18;13.87;;;6.97;;
11334;SDS011;5722;42.620;23.374;2024-02-15T10:05:46;9.90;;;7.00;;
11334;SDS011;5722;42.620;23.374;2024-02-15T10:08:18;12.60;;;6.60;;
11334;SDS011;5722;42.620;23.374;2024-02-15T10:10:47;9.17;;;6.67;;
11334;SDS011;5722;42.620;23.374;2024-02-15T10:13:25;8.13;;;6.40;;
11334;SDS011;5722;42.620;23.374;2024-02-15T10:15:53;11.43;;;7.70;;
11334;SDS011;5722;42.620;23.374;2024-02-15T10:18:24;10.33;;;7.40;;
11334;SDS011;5722;42.620;23.374;2024-02-15T10:20:57;11.53;;;7.03;;
11334;SDS011;5722;42.620;23.374;2024-02-15T10:23:24;10.90;;;6.97;;
11334;SDS011;5722;42.620;23.374;2024-02-15T10:25:51;9.13;;;6.13;;
11334;SDS011;5722;42.620;23.374;2024-02-15T10:28:26;11.43;;;6.87;;
11334;SDS011;5722;42.620;23.374;2024-02-15T10:33:38;10.33;;;6.97;;
11334;SDS011;5722;42.620;23.374;2024-02-15T10:36:09;8.93;;;6.77;;
11334;SDS011;5722;42.620;23.374;2024-02-15T10:38:39;12.57;;;7.63;;
11334;SDS011;5722;42.620;23.374;2024-02-15T10:41:07;10.97;;;7.70;;
11334;SDS011;5722;42.620;23.374;2024-02-15T10:43:37;14.00;;;6.90;;
11334;SDS011;5722;42.620;23.374;2024-02-15T10:46:06;8.27;;;6.33;;
11334;SDS011;5722;42.620;23.374;2024-02-15T10:48:35;10.30;;;7.00;;
11334;SDS011;5722;42.620;23.374;2024-02-15T10:51:06;8.20;;;6.50;;
11334;SDS011;5722;42.620;23.374;2024-02-15T10:53:36;11.27;;;7.30;;
11334;SDS011;5722;42.620;23.374;2024-02-15T10:56:10;10.67;;;6.33;;
11334;SDS011;5722;42.620;23.374;2024-02-15T10:58:50;7.17;;;6.37;;
11334;SDS011;5722;42.620;23.374;2024-02-15T11:01:21;9.60;;;6.03;;
11334;SDS011;5722;42.620;23.374;2024-02-15T11:03:51;6.90;;;5.87;;
11334;SDS011;5722;42.620;23.374;2024-02-15T11:06:18;7.60;;;6.23;;
11334;SDS011;5722;42.620;23.374;2024-02-15T11:08:51;11.57;;;6.47;;
11334;SDS011;5722;42.620;23.374;2024-02-15T11:11:18;8.87;;;6.63;;
11334;SDS011;5722;42.620;23.374;2024-02-15T11:13:58;10.17;;;7.27;;
11334;SDS011;5722;42.620;23.374;2024-02-15T11:16:48;9.73;;;5.90;;
11334;SDS011;5722;42.620;23.374;2024-02-15T11:22:07;7.83;;;6.53;;
11334;SDS011;5722;42.620;23.374;2024-02-15T11:24:45;7.67;;;6.27;;
11334;SDS011;5722;42.620;23.374;2024-02-15T11:29:57;7.07;;;5.80;;
11334;SDS011;5722;42.620;23.374;2024-02-15T11:32:35;12.83;;;6.40;;
11334;SDS011;5722;42.620;23.374;2024-02-15T11:35:05;6.53;;;5.47;;
11334;SDS011;5722;42.620;23.374;2024-02-15T11:38:04;9.67;;;6.40;;
11334;SDS011;5722;42.620;23.374;2024-02-15T11:41:05;9.90;;;6.40;;
11334;SDS011;5722;42.620;23.374;2024-02-15T11:43:45;8.23;;;6.00;;
11334;SDS011;5722;42.620;23.374;2024-02-15T11:46:21;12.00;;;5.93;;
11334;SDS011;5722;42.620;23.374;2024-02-15T11:48:50;7.47;;;6.30;;
11334;SDS011;5722;42.620;23.374;2024-02-15T11:51:27;10.03;;;6.20;;
11334;SDS011;5722;42.620;23.374;2024-02-15T11:54:02;7.83;;;6.30;;
11334;SDS011;5722;42.620;23.374;2024-02-15T11:56:31;8.53;;;5.60;;
11334;SDS011;5722;42.620;23.374;2024-02-15T11:59:02;6.90;;;5.57;;
11334;SDS011;5722;42.620;23.374;2024-02-15T12:01:33;6.43;;;5.50;;
11334;SDS011;5722;42.620;23.374;2024-02-15T12:04:18;7.43;;;5.30;;
11334;SDS011;5722;42.620;23.374;2024-02-15T12:07:05;8.83;;;5.53;;
11334;SDS011;5722;42.620;23.374;2024-02-15T12:09:49;8.17;;;5.40;;
11334;SDS011;5722;42.620;23.374;2024-02-15T12:12:33;6.73;;;5.27;;
11334;SDS011;5722;42.620;23.374;2024-02-15T12:15:17;11.47;;;5.50;;
11334;SDS011;5722;42.620;23.374;2024-02-15T12:18:15;12.43;;;6.27;;
11334;SDS011;5722;42.620;23.374;2024-02-15T12:21:00;6.37;;;5.43;;
11334;SDS011;5722;42.620;23.374;2024-02-15T12:23:28;12.13;;;5.10;;
11334;SDS011;5722;42.620;23.374;2024-02-15T12:26:00;7.50;;;5.37;;
11334;SDS011;5722;42.620;23.374;2024-02-15T12:28:42;9.07;;;5.07;;
11334;SDS011;5722;42.620;23.374;2024-02-15T12:31:11;9.00;;;5.63;;
11334;SDS011;5722;42.620;23.374;2024-02-15T12:33:40;8.73;;;5.60;;
11334;SDS011;5722;42.620;23.374;2024-02-15T12:36:11;8.57;;;5.43;;
11334;SDS011;5722;42.620;23.374;2024-02-15T12:38:38;7.27;;;5.53;;
11334;SDS011;5722;42.620;23.374;2024-02-15T12:41:17;6.77;;;5.40;;
11334;SDS011;5722;42.620;23.374;2024-02-15T12:43:44;17.80;;;5.33;;
11334;SDS011;5722;42.620;23.374;2024-02-15T12:46:11;8.00;;;5.97;;
11334;SDS011;5722;42.620;23.374;2024-02-15T12:48:42;7.60;;;5.67;;
11334;SDS011;5722;42.620;23.374;2024-02-15T12:51:13;8.73;;;5.63;;
11334;SDS011;5722;42.620;23.374;2024-02-15T12:53:40;8.43;;;5.83;;
11334;SDS011;5722;42.620;23.374;2024-02-15T12:56:09;14.43;;;5.80;;
11334;SDS011;5722;42.620;23.374;2024-02-15T12:58:35;7.30;;;5.53;;
11334;SDS011;5722;42.620;23.374;2024-02-15T13:01:04;15.33;;;5.67;;
11334;SDS011;5722;42.620;23.374;2024-02-15T13:03:33;9.10;;;5.93;;
11334;SDS011;5722;42.620;23.374;2024-02-15T13:06:04;6.27;;;5.40;;
11334;SDS011;5722;42.620;23.374;2024-02-15T13:08:34;8.63;;;5.60;;
11334;SDS011;5722;42.620;23.374;2024-02-15T13:11:01;8.13;;;5.60;;
11334;SDS011;5722;42.620;23.374;2024-02-15T13:13:28;8.30;;;5.40;;
11334;SDS011;5722;42.620;23.374;2024-02-15T13:15:55;6.97;;;5.63;;
11334;SDS011;5722;42.620;23.374;2024-02-15T13:18:23;8.17;;;5.40;;
11334;SDS011;5722;42.620;23.374;2024-02-15T13:20:53;6.70;;;5.00;;
11334;SDS011;5722;42.620;23.374;2024-02-15T13:23:22;6.37;;;4.90;;
11334;SDS011;5722;42.620;23.374;2024-02-15T13:25:50;7.07;;;5.37;;
11334;SDS011;5722;42.620;23.374;2024-02-15T13:28:18;5.87;;;4.93;;
11334;SDS011;5722;42.620;23.374;2024-02-15T13:30:50;6.70;;;5.37;;
11334;SDS011;5722;42.620;23.374;2024-02-15T13:33:19;7.63;;;5.43;;
11334;SDS011;5722;42.620;23.374;2024-02-15T13:35:47;6.13;;;5.40;;
11334;SDS011;5722;42.620;23.374;2024-02-15T13:38:16;7.67;;;5.30;;
11334;SDS011;5722;42.620;23.374;2024-02-15T13:40:50;8.87;;;5.27;;
11334;SDS011;5722;42.620;23.374;2024-02-15T13:43:19;8.07;;;5.43;;
11334;SDS011;5722;42.620;23.374;2024-02-15T13:45:48;7.30;;;5.17;;
11334;SDS011;5722;42.620;23.374;2024-02-15T13:48:19;7.83;;;5.23;;
11334;SDS011;5722;42.620;23.374;2024-02-15T13:50:51;8.07;;;5.70;;
11334;SDS011;5722;42.620;23.374;2024-02-15T13:53:20;8.80;;;5.27;;
11334;SDS011;5722;42.620;23.374;2024-02-15T13:58:34;6.17;;;5.17;;
11334;SDS011;5722;42.620;23.374;2024-02-15T14:01:02;7.10;;;5.37;;
11334;SDS011;5722;42.620;23.374;2024-02-15T14:03:36;8.20;;;5.60;;
11334;SDS011;5722;42.620;23.374;2024-02-15T14:06:11;6.83;;;5.17;;
11334;SDS011;5722;42.620;23.374;2024-02-15T14:08:40;19.93;;;5.77;;
11334;SDS011;5722;42.620;23.374;2024-02-15T14:11:08;6.03;;;4.77;;
11334;SDS011;5722;42.620;23.374;2024-02-15T14:13:39;8.17;;;5.00;;
11334;SDS011;5722;42.620;23.374;2024-02-15T14:16:06;6.63;;;5.37;;
11334;SDS011;5722;42.620;23.374;2024-02-15T14:18:34;7.77;;;5.17;;
11334;SDS011;5722;42.620;23.374;2024-02-15T14:21:01;6.40;;;4.23;;
11334;SDS011;5722;42.620;23.374;2024-02-15T14:23:32;10.37;;;5.50;;
11334;SDS011;5722;42.620;23.374;2024-02-15T14:26:11;7.70;;;5.10;;
11334;SDS011;5722;42.620;23.374;2024-02-15T14:28:40;8.87;;;4.87;;
11334;SDS011;5722;42.620;23.374;2024-02-15T14:31:07;12.30;;;5.20;;
11334;SDS011;5722;42.620;23.374;2024-02-15T14:33:51;6.13;;;5.03;;
11334;SDS011;5722;42.620;23.374;2024-02-15T14:36:19;8.47;;;4.93;;
11334;SDS011;5722;42.620;23.374;2024-02-15T14:38:56;7.77;;;5.10;;
11334;SDS011;5722;42.620;23.374;2024-02-15T14:41:27;5.20;;;4.70;;
11334;SDS011;5722;42.620;23.374;2024-02-15T14:43:55;10.17;;;5.07;;
11334;SDS011;5722;42.620;23.374;2024-02-15T14:46:22;9.43;;;5.90;;
11334;SDS011;5722;42.620;23.374;2024-02-15T14:48:50;7.57;;;5.20;;
11334;SDS011;5722;42.620;23.374;2024-02-15T14:51:20;8.13;;;4.83;;
11334;SDS011;5722;42.620;23.374;2024-02-15T14:53:47;11.87;;;4.73;;
11334;SDS011;5722;42.620;23.374;2024-02-15T14:56:16;5.60;;;4.33;;
11334;SDS011;5722;42.620;23.374;2024-02-15T14:58:44;5.67;;;4.53;;
11334;SDS011;5722;42.620;23.374;2024-02-15T15:01:17;9.60;;;4.90;;
11334;SDS011;5722;42.620;23.374;2024-02-15T15:03:52;7.10;;;4.90;;
11334;SDS011;5722;42.620;23.374;2024-02-15T15:06:21;9.23;;;5.40;;
11334;SDS011;5722;42.620;23.374;2024-02-15T15:09:05;16.67;;;5.30;;
11334;SDS011;5722;42.620;23.374;2024-02-15T15:11:50;9.67;;;5.63;;
11334;SDS011;5722;42.620;23.374;2024-02-15T15:14:36;6.43;;;4.73;;
11334;SDS011;5722;42.620;23.374;2024-02-15T15:17:08;10.30;;;5.03;;
11334;SDS011;5722;42.620;23.374;2024-02-15T15:19:37;9.53;;;5.50;;
11334;SDS011;5722;42.620;23.374;2024-02-15T15:22:05;12.63;;;5.57;;
11334;SDS011;5722;42.620;23.374;2024-02-15T15:24:33;5.83;;;5.23;;
11334;SDS011;5722;42.620;23.374;2024-02-15T15:27:04;9.10;;;5.50;;
11334;SDS011;5722;42.620;23.374;2024-02-15T15:29:35;8.53;;;5.77;;
11334;SDS011;5722;42.620;23.374;2024-02-15T15:32:03;6.97;;;5.53;;
11334;SDS011;5722;42.620;23.374;2024-02-15T15:34:38;13.57;;;5.73;;
11334;SDS011;5722;42.620;23.374;2024-02-15T15:37:07;23.23;;;5.93;;
11334;SDS011;5722;42.620;23.374;2024-02-15T15:39:37;13.97;;;6.23;;
11334;SDS011;5722;42.620;23.374;2024-02-15T15:42:04;9.33;;;6.23;;
11334;SDS011;5722;42.620;23.374;2024-02-15T15:44:33;9.23;;;5.50;;
11334;SDS011;5722;42.620;23.374;2024-02-15T15:47:03;12.27;;;5.43;;
11334;SDS011;5722;42.620;23.374;2024-02-15T15:49:31;8.73;;;6.30;;
11334;SDS011;5722;42.620;23.374;2024-02-15T15:52:01;11.17;;;5.93;;
11334;SDS011;5722;42.620;23.374;2024-02-15T15:54:29;9.53;;;6.40;;